Time;durP1;ratioP1;P1;durP2;ratioP2;P2;SDS_P1;SDS_P2;PMS_P1;PMS_P2;Temp;Humidity;BMP_temperature;BMP_pressure;BME280_temperature;BME280_humidity;BME280_pressure;Samples;Min_cycle;Max_cycle;Signal;HPM_P1;HPM_P2
2023/10/01 00:02:00;;;;;;;13.90;5.77;;;12.80;99.90;;;;;;4156458;28;20696;-80
2023/10/01 00:04:06;;;;;;;13.80;5.60;;;12.90;99.90;;;;;;4164253;28;21237;-80
2023/10/01 00:06:08;;;;;;;11.43;4.97;;;12.80;99.90;;;;;;4157483;28;20244;-80
2023/10/01 00:08:13;;;;;;;10.27;4.80;;;12.80;99.90;;;;;;4156901;28;20267;-80
2023/10/01 00:10:15;;;;;;;11.33;4.90;;;12.80;99.90;;;;;;4155633;28;20233;-80
2023/10/01 00:12:17;;;;;;;12.17;4.50;;;12.80;99.90;;;;;;4157792;28;20201;-79
2023/10/01 00:14:21;;;;;;;9.03;4.67;;;12.70;99.90;;;;;;4157900;28;20216;-79
2023/10/01 00:16:23;;;;;;;8.90;4.03;;;12.70;99.90;;;;;;4155395;28;20228;-79
2023/10/01 00:18:25;;;;;;;8.53;4.07;;;12.70;99.90;;;;;;4162836;28;20245;-79
2023/10/01 00:20:29;;;;;;;11.03;4.20;;;12.70;99.90;;;;;;4163092;28;20257;-79
2023/10/01 00:22:33;;;;;;;8.47;4.30;;;12.70;99.90;;;;;;4160000;28;20210;-79
2023/10/01 00:24:35;;;;;;;8.57;4.10;;;12.70;99.90;;;;;;4161901;28;20612;-79
2023/10/01 00:26:37;;;;;;;8.87;4.47;;;12.60;99.90;;;;;;4162395;28;20214;-79
2023/10/01 00:28:39;;;;;;;12.10;4.60;;;12.60;99.90;;;;;;4162120;28;20224;-79
2023/10/01 00:30:41;;;;;;;10.60;4.10;;;12.60;99.90;;;;;;4162338;28;20687;-79
2023/10/01 00:32:44;;;;;;;9.97;4.50;;;12.60;99.90;;;;;;4157421;28;20206;-79
2023/10/01 00:34:46;;;;;;;8.77;3.90;;;12.60;99.90;;;;;;4163395;28;20208;-79
2023/10/01 00:36:49;;;;;;;9.23;3.77;;;12.60;99.90;;;;;;4163261;28;20212;-79
2023/10/01 00:38:51;;;;;;;9.30;4.07;;;12.50;99.90;;;;;;4161332;28;20212;-79
2023/10/01 00:40:54;;;;;;;9.00;3.83;;;12.50;99.90;;;;;;4158960;28;20206;-79
2023/10/01 00:42:57;;;;;;;9.50;4.70;;;12.50;99.90;;;;;;4165071;28;20698;-79
2023/10/01 00:44:59;;;;;;;11.57;4.63;;;12.60;99.90;;;;;;4163922;28;20208;-79
2023/10/01 00:47:04;;;;;;;8.57;3.80;;;12.50;99.90;;;;;;4162174;28;20214;-79
2023/10/01 00:49:08;;;;;;;9.83;4.33;;;12.50;99.90;;;;;;4164693;28;20284;-79
2023/10/01 00:51:11;;;;;;;6.17;3.80;;;12.50;99.90;;;;;;4156105;28;20208;-79
2023/10/01 00:53:13;;;;;;;9.03;4.10;;;12.50;99.90;;;;;;4160749;28;20213;-79
2023/10/01 00:55:15;;;;;;;9.53;4.40;;;12.40;99.90;;;;;;4156865;28;20292;-79
2023/10/01 00:57:18;;;;;;;10.63;4.50;;;12.40;99.90;;;;;;4159625;28;20204;-79
2023/10/01 00:59:20;;;;;;;13.23;4.50;;;12.50;99.90;;;;;;4167493;28;20234;-79
2023/10/01 01:01:23;;;;;;;13.70;4.60;;;12.50;99.90;;;;;;4158302;28;20223;-78
2023/10/01 01:03:25;;;;;;;12.50;4.67;;;12.50;99.90;;;;;;4159032;28;20226;-79
2023/10/01 01:05:34;;;;;;;10.07;4.53;;;12.50;99.90;;;;;;4156247;28;20211;-79
2023/10/01 01:07:36;;;;;;;9.73;4.43;;;12.50;99.90;;;;;;4167957;28;20206;-78
2023/10/01 01:09:40;;;;;;;11.87;4.63;;;12.40;99.90;;;;;;4160490;28;20221;-78
2023/10/01 01:11:42;;;;;;;10.87;4.43;;;12.50;99.90;;;;;;4156879;28;20299;-79
2023/10/01 01:13:44;;;;;;;10.77;4.27;;;12.50;99.90;;;;;;4155246;28;21202;-79
2023/10/01 01:15:48;;;;;;;9.10;3.93;;;12.40;99.90;;;;;;4157243;28;20670;-78
2023/10/01 01:17:51;;;;;;;8.03;4.40;;;12.40;99.90;;;;;;4155634;28;20266;-78
2023/10/01 01:19:55;;;;;;;7.63;3.87;;;12.40;99.90;;;;;;4161668;28;20884;-78
2023/10/01 01:21:57;;;;;;;8.23;3.97;;;12.40;99.90;;;;;;4156387;28;20226;-78
2023/10/01 01:24:03;;;;;;;9.10;4.27;;;12.40;99.90;;;;;;4164854;28;20210;-78
2023/10/01 01:26:07;;;;;;;10.47;4.10;;;12.40;99.90;;;;;;4160506;28;20628;-78
2023/10/01 01:28:12;;;;;;;7.70;4.40;;;12.40;99.90;;;;;;4160862;28;20266;-78
2023/10/01 01:30:18;;;;;;;8.73;4.20;;;12.50;99.90;;;;;;4155993;28;20281;-78
2023/10/01 01:32:20;;;;;;;10.93;4.87;;;12.40;99.90;;;;;;4165261;28;20203;-79
2023/10/01 01:34:23;;;;;;;10.13;4.47;;;12.40;99.90;;;;;;4165654;28;20433;-79
2023/10/01 01:36:30;;;;;;;14.93;4.30;;;12.40;99.90;;;;;;4163657;28;20270;-79
2023/10/01 01:38:31;;;;;;;13.17;4.27;;;12.50;99.90;;;;;;4164822;28;20204;-78
2023/10/01 01:40:36;;;;;;;9.27;4.23;;;12.50;99.90;;;;;;4161721;28;20227;-78
2023/10/01 01:42:38;;;;;;;10.70;4.30;;;12.50;99.90;;;;;;4159642;28;20768;-78
2023/10/01 01:44:42;;;;;;;12.83;4.27;;;12.40;99.90;;;;;;4162416;28;20230;-79
2023/10/01 01:46:49;;;;;;;10.50;4.50;;;12.50;99.90;;;;;;4157796;28;20213;-78
2023/10/01 01:48:52;;;;;;;8.97;4.43;;;12.50;99.90;;;;;;4163569;28;20205;-78
2023/10/01 01:50:54;;;;;;;9.30;4.23;;;12.50;99.90;;;;;;4161087;28;20265;-79
2023/10/01 01:52:57;;;;;;;9.10;4.43;;;12.50;99.90;;;;;;4174464;28;20214;-78
2023/10/01 01:55:00;;;;;;;10.70;4.50;;;12.50;99.90;;;;;;4157217;28;20232;-78
2023/10/01 01:57:08;;;;;;;14.00;4.87;;;12.50;99.90;;;;;;4164064;28;20215;-78
2023/10/01 01:59:15;;;;;;;8.63;4.10;;;12.50;99.90;;;;;;4159035;28;20777;-78
2023/10/01 02:01:23;;;;;;;12.57;4.57;;;12.50;99.90;;;;;;4163755;28;20357;-78
2023/10/01 02:03:24;;;;;;;12.80;4.40;;;12.50;99.90;;;;;;4161580;28;20195;-78
2023/10/01 02:05:28;;;;;;;8.50;4.50;;;12.50;99.90;;;;;;4163430;28;20272;-78
2023/10/01 02:07:33;;;;;;;10.60;4.17;;;12.50;99.90;;;;;;4167766;28;20289;-78
2023/10/01 02:09:36;;;;;;;9.13;4.43;;;12.50;99.90;;;;;;4166754;28;20236;-78
2023/10/01 02:11:37;;;;;;;7.73;3.83;;;12.50;99.90;;;;;;4160330;28;20213;-78
2023/10/01 02:13:41;;;;;;;9.40;4.40;;;12.50;99.90;;;;;;4160831;28;20243;-78
2023/10/01 02:15:43;;;;;;;8.20;3.77;;;12.50;99.90;;;;;;4156651;28;20222;-78
2023/10/01 02:17:45;;;;;;;8.83;3.80;;;12.50;99.90;;;;;;4154055;28;20212;-78
2023/10/01 02:19:47;;;;;;;8.63;3.87;;;12.50;99.90;;;;;;4161210;28;20234;-78
2023/10/01 02:22:00;;;;;;;8.00;4.03;;;12.50;99.90;;;;;;4157437;28;20687;-78
2023/10/01 02:24:01;;;;;;;13.37;4.47;;;12.50;99.90;;;;;;4161814;28;20200;-78
2023/10/01 02:26:06;;;;;;;12.20;4.50;;;12.50;99.90;;;;;;4153920;28;20226;-78
2023/10/01 02:28:12;;;;;;;16.60;4.50;;;12.50;99.90;;;;;;4161946;28;20216;-79
2023/10/01 02:30:21;;;;;;;9.53;3.77;;;12.50;99.90;;;;;;4161038;28;20246;-79
2023/10/01 02:32:23;;;;;;;7.67;3.97;;;12.50;99.90;;;;;;4162790;28;20203;-78
2023/10/01 02:34:29;;;;;;;9.60;4.00;;;12.50;99.90;;;;;;4165697;28;20283;-79
2023/10/01 02:36:31;;;;;;;11.13;4.00;;;12.50;99.90;;;;;;4164902;28;20740;-78
2023/10/01 02:38:43;;;;;;;10.90;4.07;;;12.50;99.90;;;;;;4161575;28;20295;-78
2023/10/01 02:40:48;;;;;;;8.53;4.03;;;12.60;99.90;;;;;;4163694;28;20291;-78
2023/10/01 02:42:50;;;;;;;11.87;4.90;;;12.50;99.90;;;;;;4157091;28;20251;-78
2023/10/01 02:44:53;;;;;;;11.20;4.37;;;12.60;99.90;;;;;;4156179;28;20265;-78
2023/10/01 02:47:01;;;;;;;8.63;3.90;;;12.50;99.90;;;;;;4156582;28;20199;-79
2023/10/01 02:49:04;;;;;;;12.30;4.97;;;12.50;99.90;;;;;;4154854;28;20227;-78
2023/10/01 02:51:32;;;;;;;9.30;4.13;;;12.50;99.90;;;;;;4159012;28;20310;-78
2023/10/01 02:53:42;;;;;;;11.90;4.17;;;12.50;99.90;;;;;;4167075;28;20201;-79
2023/10/01 02:55:46;;;;;;;10.90;3.70;;;12.50;99.90;;;;;;4156510;28;20207;-78
2023/10/01 02:57:50;;;;;;;9.10;3.60;;;12.50;99.90;;;;;;4160364;28;20235;-78
2023/10/01 03:02:15;;;;;;;10.07;4.07;;;12.50;99.90;;;;;;4159616;28;20980;-78
2023/10/01 03:04:17;;;;;;;12.43;4.77;;;12.50;99.90;;;;;;4160317;28;20245;-78
2023/10/01 03:06:18;;;;;;;10.87;4.27;;;12.50;99.90;;;;;;4159263;28;20207;-79
2023/10/01 03:08:40;;;;;;;8.13;4.00;;;12.40;99.90;;;;;;4157524;28;20291;-78
2023/10/01 03:10:46;;;;;;;8.70;4.00;;;12.50;99.90;;;;;;4156087;28;20237;-78
2023/10/01 03:12:49;;;;;;;11.47;4.30;;;12.50;99.90;;;;;;4159204;28;20207;-78
2023/10/01 03:15:00;;;;;;;12.80;4.37;;;12.50;99.90;;;;;;4156121;28;20218;-78
2023/10/01 03:17:07;;;;;;;12.67;4.07;;;12.40;99.90;;;;;;4163729;28;20223;-78
2023/10/01 03:19:24;;;;;;;12.27;4.00;;;12.40;99.90;;;;;;4158454;28;20712;-78
2023/10/01 03:22:14;;;;;;;12.27;4.40;;;12.40;99.90;;;;;;4156665;28;20237;-79
2023/10/01 03:24:00;;;;;;;10.67;4.13;;;12.40;99.90;;;;;;4162049;28;20210;-78
2023/10/01 03:26:05;;;;;;;9.27;3.70;;;12.40;99.90;;;;;;4159866;28;20204;-78
2023/10/01 03:28:07;;;;;;;8.73;3.83;;;12.40;99.90;;;;;;4167811;28;20649;-78
2023/10/01 03:30:20;;;;;;;10.00;3.93;;;12.40;99.90;;;;;;4163500;28;20582;-78
2023/10/01 03:32:29;;;;;;;8.40;3.87;;;12.50;99.90;;;;;;4161117;28;20206;-78
2023/10/01 03:34:43;;;;;;;13.20;4.30;;;12.50;99.90;;;;;;4173060;28;20205;-78
2023/10/01 03:36:52;;;;;;;8.63;3.67;;;12.40;99.90;;;;;;4162833;28;20200;-78
2023/10/01 03:38:57;;;;;;;8.53;3.27;;;12.50;99.90;;;;;;4164510;28;20212;-79
2023/10/01 03:41:00;;;;;;;8.00;3.57;;;12.50;99.90;;;;;;4157400;28;20569;-79
2023/10/01 03:43:04;;;;;;;8.13;3.77;;;12.50;99.90;;;;;;4158067;28;20219;-79
2023/10/01 03:45:37;;;;;;;10.83;3.67;;;12.50;99.90;;;;;;4154742;28;20286;-78
2023/10/01 03:47:41;;;;;;;8.30;3.30;;;12.50;99.90;;;;;;4157562;28;20317;-78
2023/10/01 03:49:44;;;;;;;11.67;4.03;;;12.50;99.90;;;;;;4158996;28;20244;-78
2023/10/01 03:51:59;;;;;;;11.20;3.97;;;12.50;99.90;;;;;;4155613;28;20208;-79
2023/10/01 03:54:06;;;;;;;9.00;3.47;;;12.50;99.90;;;;;;4157834;28;20202;-78
2023/10/01 03:56:09;;;;;;;8.33;3.80;;;12.50;99.90;;;;;;4161114;28;20243;-78
2023/10/01 03:58:18;;;;;;;10.53;3.53;;;12.50;99.90;;;;;;4163284;28;20247;-78
2023/10/01 04:00:32;;;;;;;6.43;3.40;;;12.50;99.90;;;;;;4160043;28;20318;-78
2023/10/01 04:02:46;;;;;;;9.27;3.10;;;12.50;99.90;;;;;;4158849;28;20292;-78
2023/10/01 04:04:57;;;;;;;9.40;3.50;;;12.60;99.90;;;;;;4165818;28;20289;-78
2023/10/01 04:07:09;;;;;;;5.53;3.37;;;12.50;99.90;;;;;;4158873;28;20233;-78
2023/10/01 04:09:11;;;;;;;10.80;3.97;;;12.50;99.90;;;;;;4154668;28;20228;-78
2023/10/01 04:11:15;;;;;;;7.80;4.00;;;12.50;99.90;;;;;;4155158;28;20222;-78
2023/10/01 04:13:20;;;;;;;11.43;3.40;;;12.50;99.90;;;;;;4159710;28;20211;-78
2023/10/01 04:15:28;;;;;;;12.50;3.47;;;12.50;99.90;;;;;;4156939;28;20203;-78
2023/10/01 04:17:35;;;;;;;7.90;3.17;;;12.60;99.90;;;;;;4158749;28;20207;-78
2023/10/01 04:19:36;;;;;;;12.00;4.07;;;12.60;99.90;;;;;;4157067;28;20235;-79
2023/10/01 04:21:43;;;;;;;7.67;3.57;;;12.60;99.90;;;;;;4160628;28;20203;-78
2023/10/01 04:23:47;;;;;;;11.83;4.23;;;12.60;99.90;;;;;;4158987;28;20575;-78
2023/10/01 04:25:51;;;;;;;9.53;4.73;;;12.60;99.90;;;;;;4160683;28;20236;-78
2023/10/01 04:27:54;;;;;;;16.33;6.97;;;12.60;99.90;;;;;;4155287;28;20208;-78
2023/10/01 04:29:58;;;;;;;13.53;4.50;;;12.60;99.90;;;;;;4152607;28;20618;-78
2023/10/01 04:32:01;;;;;;;10.97;4.27;;;12.60;99.90;;;;;;4159435;28;20752;-78
2023/10/01 04:34:02;;;;;;;9.80;3.57;;;12.60;99.90;;;;;;4162405;28;20241;-79
2023/10/01 04:36:10;;;;;;;8.23;3.70;;;12.60;99.90;;;;;;4155286;28;20218;-78
2023/10/01 04:38:14;;;;;;;9.87;3.47;;;12.60;99.90;;;;;;4155566;28;20604;-79
2023/10/01 04:40:39;;;;;;;7.27;3.67;;;12.60;99.90;;;;;;4156590;28;20710;-79
2023/10/01 04:42:43;;;;;;;12.33;3.60;;;12.60;99.90;;;;;;4159834;28;20618;-77
2023/10/01 04:44:45;;;;;;;6.87;3.00;;;12.60;99.90;;;;;;4159590;28;20208;-77
2023/10/01 04:46:47;;;;;;;7.50;3.13;;;12.60;99.90;;;;;;4157385;28;20680;-78
2023/10/01 04:48:50;;;;;;;6.97;3.30;;;12.60;99.90;;;;;;4156274;28;20204;-78
2023/10/01 04:50:54;;;;;;;7.63;3.47;;;12.60;99.90;;;;;;4157097;28;20240;-78
2023/10/01 04:52:58;;;;;;;7.83;3.47;;;12.70;99.90;;;;;;4157571;28;20247;-77
2023/10/01 04:55:02;;;;;;;10.97;3.70;;;12.60;99.90;;;;;;4160492;28;20212;-77
2023/10/01 04:57:04;;;;;;;8.70;3.27;;;12.70;99.90;;;;;;4161837;28;20223;-79
2023/10/01 04:59:07;;;;;;;8.77;3.50;;;12.70;99.90;;;;;;4157513;28;20235;-78
2023/10/01 05:01:11;;;;;;;10.13;3.50;;;12.70;99.90;;;;;;4159474;28;20265;-80
2023/10/01 05:03:15;;;;;;;6.57;3.10;;;12.70;99.90;;;;;;4158419;28;20218;-79
2023/10/01 05:05:25;;;;;;;7.87;3.50;;;12.70;99.90;;;;;;4161282;28;20253;-78
2023/10/01 05:07:27;;;;;;;12.37;3.50;;;12.70;99.90;;;;;;4156065;28;20908;-78
2023/10/01 05:09:29;;;;;;;9.83;3.67;;;12.60;99.90;;;;;;4164643;28;20231;-78
2023/10/01 05:11:33;;;;;;;7.63;3.30;;;12.60;99.90;;;;;;4157149;28;20823;-77
2023/10/01 05:13:34;;;;;;;5.27;3.13;;;12.60;99.90;;;;;;4157344;28;20240;-75
2023/10/01 05:15:37;;;;;;;11.20;3.40;;;12.60;99.90;;;;;;4156941;28;20679;-77
2023/10/01 05:17:39;;;;;;;8.87;3.50;;;12.60;99.90;;;;;;4160868;28;20218;-78
2023/10/01 05:19:41;;;;;;;9.50;3.47;;;12.60;99.90;;;;;;4157075;28;20224;-77
2023/10/01 05:21:46;;;;;;;11.10;3.33;;;12.60;99.90;;;;;;4160715;28;20993;-79
2023/10/01 05:23:48;;;;;;;6.83;3.13;;;12.60;99.90;;;;;;4158731;28;20314;-76
2023/10/01 05:25:50;;;;;;;8.43;3.50;;;12.60;99.90;;;;;;4155200;28;20287;-77
2023/10/01 05:27:55;;;;;;;7.47;3.20;;;12.60;99.90;;;;;;4152869;28;20220;-76
2023/10/01 05:29:57;;;;;;;6.90;3.27;;;12.60;99.90;;;;;;4156433;28;20235;-77
2023/10/01 05:31:59;;;;;;;7.37;2.90;;;12.60;99.90;;;;;;4154966;28;20240;-77
2023/10/01 05:34:01;;;;;;;10.30;3.37;;;12.60;99.90;;;;;;4152898;28;20213;-78
2023/10/01 05:36:05;;;;;;;12.83;4.00;;;12.60;99.90;;;;;;4155831;28;20254;-77
2023/10/01 05:38:10;;;;;;;10.40;3.80;;;12.70;99.90;;;;;;4153452;28;20222;-77
2023/10/01 05:40:15;;;;;;;9.40;3.90;;;12.70;99.90;;;;;;4161593;28;20223;-78
2023/10/01 05:42:19;;;;;;;13.63;5.10;;;12.70;99.90;;;;;;4155689;28;20216;-77
2023/10/01 05:44:23;;;;;;;11.23;4.30;;;12.70;99.90;;;;;;4162932;28;20295;-77
2023/10/01 05:46:27;;;;;;;8.30;3.53;;;12.70;99.90;;;;;;4154858;28;20215;-77
2023/10/01 05:48:29;;;;;;;8.43;3.67;;;12.60;99.90;;;;;;4158897;28;20304;-77
2023/10/01 05:50:31;;;;;;;14.73;3.27;;;12.70;99.90;;;;;;4158567;28;20228;-77
2023/10/01 05:52:33;;;;;;;8.87;3.23;;;12.70;99.90;;;;;;4154628;28;20604;-77
2023/10/01 05:54:50;;;;;;;10.00;3.20;;;12.70;99.90;;;;;;4158231;28;20212;-77
2023/10/01 05:56:55;;;;;;;6.90;3.00;;;12.70;99.90;;;;;;4154733;28;20234;-78
2023/10/01 05:58:58;;;;;;;9.37;3.20;;;12.70;99.90;;;;;;4160242;28;20330;-78
2023/10/01 06:01:13;;;;;;;8.47;3.70;;;12.70;99.90;;;;;;4158034;28;20210;-77
2023/10/01 06:03:16;;;;;;;11.03;3.73;;;12.70;99.90;;;;;;4155659;28;20311;-78
2023/10/01 06:05:25;;;;;;;9.27;3.00;;;12.70;99.90;;;;;;4162828;28;20273;-77
2023/10/01 06:07:27;;;;;;;9.47;3.40;;;12.80;99.90;;;;;;4159070;28;20693;-78
2023/10/01 06:09:33;;;;;;;12.43;3.93;;;12.80;99.90;;;;;;4162738;28;20333;-78
2023/10/01 06:11:42;;;;;;;15.93;4.60;;;12.80;99.90;;;;;;4156204;28;20582;-77
2023/10/01 06:13:51;;;;;;;10.63;3.93;;;12.80;99.90;;;;;;4157708;28;20205;-76
2023/10/01 06:15:52;;;;;;;9.90;3.20;;;12.80;99.90;;;;;;4155138;28;20208;-76
2023/10/01 06:17:56;;;;;;;7.80;3.00;;;12.80;99.90;;;;;;4159182;28;20201;-76
2023/10/01 06:20:23;;;;;;;7.00;2.70;;;12.80;99.90;;;;;;4158977;28;20355;-76
2023/10/01 06:22:25;;;;;;;6.87;2.60;;;12.80;99.90;;;;;;4156604;28;20213;-76
2023/10/01 06:24:27;;;;;;;6.17;3.00;;;12.90;99.90;;;;;;4158711;28;20211;-78
2023/10/01 06:26:36;;;;;;;6.50;2.90;;;12.90;99.90;;;;;;4159759;28;20708;-79
2023/10/01 06:28:37;;;;;;;6.97;2.70;;;12.90;99.90;;;;;;4161384;28;20744;-77
2023/10/01 06:30:40;;;;;;;12.50;4.57;;;12.90;99.90;;;;;;4168762;28;20200;-79
2023/10/01 06:32:42;;;;;;;6.00;3.43;;;13.00;99.90;;;;;;4164288;28;20284;-78
2023/10/01 06:34:47;;;;;;;10.23;2.93;;;13.00;99.90;;;;;;4159810;28;20241;-77
2023/10/01 06:36:56;;;;;;;8.03;3.10;;;12.90;99.90;;;;;;4162949;28;20282;-78
2023/10/01 06:38:58;;;;;;;6.97;2.73;;;13.00;99.90;;;;;;4163574;28;20230;-78
2023/10/01 06:41:06;;;;;;;11.17;2.93;;;13.00;99.90;;;;;;4163168;28;20866;-78
2023/10/01 06:43:07;;;;;;;8.43;3.00;;;13.00;99.90;;;;;;4156540;28;20284;-78
2023/10/01 06:45:10;;;;;;;8.00;2.50;;;13.00;99.90;;;;;;4159682;28;20214;-78
2023/10/01 06:47:15;;;;;;;9.10;2.87;;;13.10;99.90;;;;;;4161260;28;20265;-78
2023/10/01 06:49:18;;;;;;;6.23;2.77;;;13.10;99.90;;;;;;4158626;28;20239;-78
2023/10/01 06:51:22;;;;;;;4.93;2.80;;;13.20;99.90;;;;;;4163157;28;20279;-78
2023/10/01 06:53:43;;;;;;;8.83;2.73;;;13.20;99.90;;;;;;4166543;28;20286;-78
2023/10/01 06:55:47;;;;;;;9.77;2.73;;;13.30;99.90;;;;;;4161907;28;20312;-76
2023/10/01 06:57:50;;;;;;;8.23;2.93;;;13.30;99.90;;;;;;4161625;28;20212;-78
2023/10/01 06:59:54;;;;;;;8.17;2.57;;;13.40;99.90;;;;;;4157899;28;20221;-77
2023/10/01 07:01:59;;;;;;;8.83;2.70;;;13.50;99.90;;;;;;4154963;28;20206;-77
2023/10/01 07:04:01;;;;;;;5.30;2.17;;;13.60;99.90;;;;;;4156498;28;20248;-77
2023/10/01 07:06:04;;;;;;;11.20;2.80;;;13.60;99.90;;;;;;4160432;28;20254;-77
2023/10/01 07:08:08;;;;;;;6.00;2.33;;;13.70;99.90;;;;;;4158111;28;20210;-78
2023/10/01 07:10:11;;;;;;;6.43;2.30;;;13.80;99.90;;;;;;4154802;28;20309;-78
2023/10/01 07:12:13;;;;;;;10.93;4.50;;;13.90;99.90;;;;;;4161084;28;20206;-79
2023/10/01 07:14:14;;;;;;;8.97;3.60;;;14.00;99.90;;;;;;4159820;28;20219;-79
2023/10/01 07:16:18;;;;;;;7.80;2.70;;;14.00;99.90;;;;;;4158568;28;20683;-78
2023/10/01 07:18:22;;;;;;;7.30;2.47;;;14.10;99.90;;;;;;4160271;28;20705;-78
2023/10/01 07:20:24;;;;;;;6.20;2.30;;;14.20;99.90;;;;;;4161192;28;20240;-78
2023/10/01 07:22:30;;;;;;;5.53;1.90;;;14.30;99.90;;;;;;4159484;28;20210;-78
2023/10/01 07:24:33;;;;;;;6.43;2.30;;;14.30;99.90;;;;;;4156612;28;20231;-78
2023/10/01 07:26:34;;;;;;;6.87;2.40;;;14.40;99.90;;;;;;4160933;28;20234;-79
2023/10/01 07:28:36;;;;;;;7.07;2.30;;;14.60;99.90;;;;;;4163468;28;20211;-78
2023/10/01 07:30:51;;;;;;;8.03;2.37;;;14.70;99.90;;;;;;4155654;28;20239;-79
2023/10/01 07:32:54;;;;;;;7.20;2.60;;;14.80;99.90;;;;;;4159374;28;20203;-79
2023/10/01 07:34:59;;;;;;;6.77;2.20;;;14.90;99.90;;;;;;4160656;28;20215;-78
2023/10/01 07:37:03;;;;;;;6.63;2.10;;;15.00;99.90;;;;;;4157507;28;20207;-78
2023/10/01 07:39:04;;;;;;;7.20;2.37;;;15.10;99.90;;;;;;4161261;28;20268;-78
2023/10/01 07:41:11;;;;;;;7.67;2.83;;;15.20;99.90;;;;;;4157884;28;20219;-78
2023/10/01 07:43:13;;;;;;;6.13;2.10;;;15.20;99.90;;;;;;4159163;28;20227;-78
2023/10/01 07:45:16;;;;;;;7.70;2.57;;;15.30;99.90;;;;;;4163441;28;21730;-79
2023/10/01 07:47:31;;;;;;;6.53;2.20;;;15.40;99.90;;;;;;4157478;28;20201;-78
2023/10/01 07:49:47;;;;;;;5.90;2.73;;;15.40;99.90;;;;;;4154534;28;20238;-79
2023/10/01 07:51:50;;;;;;;8.03;2.30;;;15.50;99.90;;;;;;4157573;28;20207;-79
2023/10/01 07:53:52;;;;;;;6.10;2.20;;;15.60;99.90;;;;;;4158603;28;20254;-78
2023/10/01 07:55:54;;;;;;;5.63;2.43;;;15.70;99.90;;;;;;4156290;28;20603;-78
2023/10/01 07:58:22;;;;;;;6.77;2.57;;;15.70;99.90;;;;;;4160094;28;20263;-78
2023/10/01 08:00:26;;;;;;;5.30;2.10;;;15.80;99.90;;;;;;4155977;28;20219;-77
2023/10/01 08:02:32;;;;;;;6.87;2.30;;;15.90;99.90;;;;;;4156704;28;20204;-79
2023/10/01 08:04:50;;;;;;;6.13;2.30;;;16.00;99.90;;;;;;4158827;28;20225;-80
2023/10/01 08:06:56;;;;;;;6.23;2.17;;;16.10;99.90;;;;;;4153557;28;20220;-78
2023/10/01 08:09:02;;;;;;;4.80;2.10;;;16.10;99.90;;;;;;4159470;28;20229;-80
2023/10/01 08:11:37;;;;;;;5.93;2.90;;;16.10;99.90;;;;;;4159966;28;20311;-79
2023/10/01 08:13:30;;;;;;;6.33;2.20;;;16.20;99.90;;;;;;4176702;28;20222;-80
2023/10/01 08:15:57;;;;;;;6.60;2.27;;;16.30;99.90;;;;;;4159047;28;20539;-80
2023/10/01 08:18:19;;;;;;;5.73;2.20;;;16.30;99.90;;;;;;4159032;28;20212;-80
2023/10/01 08:20:22;;;;;;;6.27;2.40;;;16.40;99.90;;;;;;4156335;28;20762;-77
2023/10/01 08:22:35;;;;;;;8.90;2.47;;;16.50;99.90;;;;;;4157913;28;20218;-77
2023/10/01 08:24:37;;;;;;;7.23;2.67;;;16.50;99.90;;;;;;4156400;28;20634;-78
2023/10/01 08:26:43;;;;;;;6.70;2.70;;;16.50;99.90;;;;;;4158112;28;20224;-77
2023/10/01 08:28:55;;;;;;;7.40;2.50;;;16.60;99.90;;;;;;4153916;28;20857;-77
2023/10/01 08:31:35;;;;;;;6.43;2.47;;;16.60;99.90;;;;;;4158330;28;20197;-77
2023/10/01 08:33:28;;;;;;;5.33;2.50;;;16.70;99.90;;;;;;4155786;28;20614;-77
2023/10/01 08:35:34;;;;;;;5.97;2.37;;;16.80;99.90;;;;;;4166055;28;20213;-78
2023/10/01 08:37:37;;;;;;;7.80;2.80;;;16.90;99.90;;;;;;4163283;28;20201;-78
2023/10/01 08:39:48;;;;;;;5.97;2.10;;;17.00;99.90;;;;;;4154302;28;20325;-77
2023/10/01 08:41:50;;;;;;;4.77;2.50;;;17.10;99.90;;;;;;4159224;28;20305;-78
2023/10/01 08:44:09;;;;;;;7.13;2.17;;;17.20;99.90;;;;;;4157148;28;20261;-78
2023/10/01 08:46:15;;;;;;;8.67;2.60;;;17.30;99.90;;;;;;4156780;28;20233;-77
2023/10/01 08:48:18;;;;;;;10.53;2.60;;;17.40;99.90;;;;;;4153779;28;20280;-78
2023/10/01 08:50:26;;;;;;;9.07;3.00;;;17.40;99.90;;;;;;4158218;28;20238;-77
2023/10/01 08:52:30;;;;;;;9.13;2.70;;;17.50;99.90;;;;;;4160388;28;20267;-77
2023/10/01 08:54:35;;;;;;;11.70;2.73;;;17.50;99.90;;;;;;4154650;28;20214;-76
2023/10/01 08:56:38;;;;;;;7.97;3.00;;;17.60;99.90;;;;;;4160240;28;20215;-76
2023/10/01 08:58:49;;;;;;;8.37;2.57;;;17.60;99.90;;;;;;4159187;28;20206;-75
2023/10/01 09:00:56;;;;;;;5.17;2.20;;;17.70;99.90;;;;;;4160967;28;20218;-77
2023/10/01 09:03:10;;;;;;;3.70;2.03;;;17.70;99.90;;;;;;4156461;28;20230;-78
2023/10/01 09:05:23;;;;;;;7.90;2.43;;;17.80;99.90;;;;;;4156019;28;20222;-78
2023/10/01 09:07:41;;;;;;;6.23;2.70;;;17.90;99.90;;;;;;4152200;28;20207;-76
2023/10/01 09:09:51;;;;;;;6.50;2.50;;;18.00;99.90;;;;;;4157707;28;20309;-75
2023/10/01 09:11:58;;;;;;;8.03;2.43;;;18.10;99.90;;;;;;4156684;28;20277;-75
2023/10/01 09:16:19;;;;;;;7.60;2.77;;;18.30;99.90;;;;;;4163065;28;20677;-79
2023/10/01 09:18:25;;;;;;;6.70;2.70;;;18.30;99.90;;;;;;4154768;28;20333;-76
2023/10/01 09:20:42;;;;;;;9.93;2.87;;;18.40;99.90;;;;;;4158245;28;20223;-75
2023/10/01 09:23:00;;;;;;;10.27;3.30;;;18.50;99.90;;;;;;4155495;28;20196;-75
2023/10/01 09:25:16;;;;;;;8.17;3.10;;;18.60;99.90;;;;;;4159179;28;20211;-76
2023/10/01 09:27:24;;;;;;;6.03;2.43;;;18.60;99.90;;;;;;4165108;28;20206;-76
2023/10/01 09:29:27;;;;;;;9.63;3.23;;;18.60;99.90;;;;;;4157963;28;20285;-76
2023/10/01 09:31:52;;;;;;;5.43;2.60;;;18.70;99.90;;;;;;4163648;28;20203;-77
2023/10/01 09:33:55;;;;;;;7.07;2.93;;;18.70;99.90;;;;;;4164392;28;20814;-77
2023/10/01 09:35:59;;;;;;;6.30;2.63;;;18.80;99.90;;;;;;4160648;28;20265;-76
2023/10/01 09:38:10;;;;;;;5.97;2.70;;;18.90;99.90;;;;;;4165639;28;20298;-77
2023/10/01 09:40:32;;;;;;;10.37;3.20;;;18.90;99.90;;;;;;4164917;28;20266;-76
2023/10/01 09:42:44;;;;;;;6.73;2.77;;;18.90;99.90;;;;;;4162808;28;20662;-76
2023/10/01 09:44:48;;;;;;;6.77;2.80;;;19.00;99.90;;;;;;4175045;28;20214;-76
2023/10/01 09:47:07;;;;;;;9.20;2.87;;;19.00;99.90;;;;;;4171765;28;20666;-76
2023/10/01 09:49:09;;;;;;;6.07;2.60;;;19.00;99.90;;;;;;4170983;28;20219;-76
2023/10/01 09:51:14;;;;;;;8.90;3.03;;;19.10;99.90;;;;;;4170303;28;20242;-77
2023/10/01 09:53:25;;;;;;;6.90;3.00;;;19.10;99.90;;;;;;4175483;28;20226;-77
2023/10/01 09:55:29;;;;;;;7.27;3.27;;;19.20;99.90;;;;;;4171073;28;20265;-77
2023/10/01 09:57:34;;;;;;;5.07;2.90;;;19.30;99.90;;;;;;4175861;28;20328;-77
2023/10/01 09:59:39;;;;;;;9.40;2.90;;;19.40;99.90;;;;;;4164899;28;20262;-76
2023/10/01 10:01:42;;;;;;;6.30;2.87;;;19.40;99.90;;;;;;4163297;28;20199;-77
2023/10/01 10:03:47;;;;;;;7.17;2.83;;;19.50;99.90;;;;;;4161153;28;20235;-77
2023/10/01 10:05:49;;;;;;;8.57;3.53;;;19.50;99.90;;;;;;4160585;28;20693;-77
2023/10/01 10:07:51;;;;;;;6.17;2.90;;;19.60;99.90;;;;;;4161481;28;20250;-77
2023/10/01 10:09:56;;;;;;;6.57;2.70;;;19.70;99.90;;;;;;4164015;28;20283;-77
2023/10/01 10:12:01;;;;;;;9.13;2.67;;;19.80;99.90;;;;;;4166404;28;20308;-77
2023/10/01 10:14:24;;;;;;;7.07;2.90;;;19.90;99.90;;;;;;4163239;28;20201;-77
2023/10/01 10:16:32;;;;;;;8.20;3.00;;;20.10;99.90;;;;;;4163788;28;20206;-77
2023/10/01 10:19:04;;;;;;;5.83;2.53;;;20.20;99.90;;;;;;4161005;28;20211;-77
2023/10/01 10:21:06;;;;;;;5.93;2.63;;;20.30;99.90;;;;;;4156610;28;20209;-78
2023/10/01 10:23:13;;;;;;;8.00;3.20;;;20.30;99.90;;;;;;4157967;28;20910;-77
2023/10/01 10:25:25;;;;;;;6.43;2.70;;;20.40;99.90;;;;;;4161417;28;20227;-77
2023/10/01 10:27:49;;;;;;;8.73;3.10;;;20.40;99.90;;;;;;4159444;28;20273;-78
2023/10/01 10:30:14;;;;;;;6.80;2.77;;;20.50;99.90;;;;;;4176607;28;20257;-78
2023/10/01 10:32:16;;;;;;;4.60;2.67;;;20.60;99.90;;;;;;4159726;28;20679;-77
2023/10/01 10:34:36;;;;;;;4.70;2.53;;;20.70;99.90;;;;;;4154487;28;20207;-78
2023/10/01 10:36:50;;;;;;;7.00;3.20;;;20.90;99.90;;;;;;4158969;28;20665;-76
2023/10/01 10:38:52;;;;;;;6.13;2.60;;;20.90;99.90;;;;;;4157516;28;20612;-77
2023/10/01 10:41:05;;;;;;;7.60;2.90;;;21.00;99.90;;;;;;4157612;28;20202;-77
2023/10/01 10:43:18;;;;;;;8.23;3.20;;;21.00;99.90;;;;;;4162553;28;20283;-78
2023/10/01 10:45:21;;;;;;;7.50;2.70;;;21.10;99.90;;;;;;4170390;28;20234;-77
2023/10/01 10:47:23;;;;;;;7.67;2.80;;;21.20;99.90;;;;;;4160868;28;20674;-78
2023/10/01 10:49:49;;;;;;;7.30;3.20;;;21.30;99.90;;;;;;4166780;28;20237;-78
2023/10/01 10:51:52;;;;;;;7.10;3.20;;;21.50;98.00;;;;;;4154981;28;20207;-78
2023/10/01 10:54:00;;;;;;;6.43;3.03;;;21.60;97.00;;;;;;4164702;28;20284;-78
2023/10/01 10:56:04;;;;;;;5.93;2.70;;;21.70;95.10;;;;;;4159952;28;20263;-79
2023/10/01 10:58:12;;;;;;;6.13;2.87;;;21.80;95.00;;;;;;4163003;28;20286;-79
2023/10/01 11:00:23;;;;;;;5.90;2.33;;;21.80;96.60;;;;;;4159071;28;20705;-79